Time;durP1;ratioP1;P1;durP2;ratioP2;P2;SDS_P1;SDS_P2;PMS_P1;PMS_P2;Temp;Humidity;BMP_temperature;BMP_pressure;BME280_temperature;BME280_humidity;BME280_pressure;Samples;Min_cycle;Max_cycle;Signal;HPM_P1;HPM_P2
2022/05/28 00:01:56;;;;;;;9.52;3.25;;;;;;;8.29;100.00;102287.03;5286698;27;20506;-70
2022/05/28 00:04:26;;;;;;;15.77;3.03;;;;;;;8.31;100.00;102283.28;5275052;28;20027;-71
2022/05/28 00:06:57;;;;;;;11.10;3.20;;;;;;;8.27;100.00;102288.97;5288172;28;20023;-71
2022/05/28 00:09:27;;;;;;;11.07;3.88;;;;;;;8.20;100.00;102285.06;5287934;28;20075;-71
2022/05/28 00:11:57;;;;;;;10.70;3.50;;;;;;;8.12;100.00;102280.28;5274146;28;20494;-71
2022/05/28 00:14:28;;;;;;;8.88;3.10;;;;;;;8.05;100.00;102281.72;5276408;28;20047;-70
2022/05/28 00:16:58;;;;;;;10.68;3.47;;;;;;;7.99;100.00;102285.72;5273869;28;20020;-71
2022/05/28 00:19:29;;;;;;;17.40;4.18;;;;;;;7.94;100.00;102279.84;5278994;28;20388;-70
2022/05/28 00:21:59;;;;;;;13.48;3.58;;;;;;;7.86;100.00;102279.56;5287552;28;20116;-71
2022/05/28 00:24:30;;;;;;;13.23;4.18;;;;;;;7.83;100.00;102279.81;5274555;28;20181;-70
2022/05/28 00:27:00;;;;;;;16.02;3.63;;;;;;;7.80;100.00;102280.03;5286865;28;20030;-70
2022/05/28 00:29:31;;;;;;;15.02;3.88;;;;;;;7.74;100.00;102285.81;5273876;28;20028;-71
2022/05/28 00:32:01;;;;;;;13.90;3.90;;;;;;;7.68;100.00;102273.78;5279017;28;20469;-70
2022/05/28 00:34:32;;;;;;;15.75;5.05;;;;;;;7.65;100.00;102282.00;5279720;28;20038;-71
2022/05/28 00:37:04;;;;;;;14.07;4.18;;;;;;;7.61;100.00;102275.16;5266440;28;20098;-70
2022/05/28 00:39:34;;;;;;;14.15;6.18;;;;;;;7.58;100.00;102274.53;5268764;28;20031;-71
2022/05/28 00:42:05;;;;;;;12.43;4.28;;;;;;;7.55;100.00;102275.63;5276941;28;20187;-70
2022/05/28 00:44:36;;;;;;;13.38;4.22;;;;;;;7.52;100.00;102267.81;5269792;28;20119;-70
2022/05/28 00:47:06;;;;;;;13.73;4.03;;;;;;;7.55;100.00;102272.09;5265421;28;20016;-70
2022/05/28 00:49:37;;;;;;;11.23;4.20;;;;;;;7.64;100.00;102272.28;5270363;28;20024;-70
2022/05/28 00:52:07;;;;;;;12.27;4.10;;;;;;;7.70;100.00;102269.16;5266022;28;20548;-70
2022/05/28 00:54:43;;;;;;;16.63;3.97;;;;;;;7.67;100.00;102274.72;5279299;28;20051;-71
2022/05/28 00:57:14;;;;;;;;;;;;;;;7.61;100.00;102269.81;5267914;28;20465;-71
2022/05/28 00:59:45;;;;;;;12.38;3.80;;;;;;;7.57;100.00;102271.00;5287322;28;20392;-71
2022/05/28 01:02:39;;;;;;;16.50;4.43;;;;;;;7.58;100.00;102269.19;5273332;28;20063;-70
2022/05/28 01:05:17;;;;;;;17.02;4.70;;;;;;;7.64;100.00;102266.09;5286860;28;20455;-70
2022/05/28 01:08:02;;;;;;;21.10;4.63;;;;;;;7.68;100.00;102259.53;5281989;28;20024;-71
2022/05/28 01:11:05;;;;;;;14.05;4.45;;;;;;;7.68;100.00;102259.53;5267879;28;20460;-70
2022/05/28 01:13:54;;;;;;;16.27;4.75;;;;;;;7.65;100.00;102265.13;5265988;28;20035;-70
2022/05/28 01:16:40;;;;;;;13.48;4.95;;;;;;;7.59;100.00;102263.75;5272587;28;20039;-71
2022/05/28 01:19:23;;;;;;;15.40;4.85;;;;;;;7.60;100.00;102262.78;5265863;28;20016;-70
2022/05/28 01:22:15;;;;;;;18.70;4.72;;;;;;;7.65;100.00;102255.28;5265555;28;20516;-70
2022/05/28 01:25:22;;;;;;;12.68;3.78;;;;;;;7.65;100.00;102259.78;5280755;28;20028;-70
2022/05/28 01:27:58;;;;;;;;;;;;;;;7.70;100.00;102262.97;5272870;28;20027;-71
2022/05/28 01:30:30;;;;;;;17.73;3.85;;;;;;;7.70;100.00;102257.63;5274605;28;19912;-70
2022/05/28 01:33:02;;;;;;;15.30;5.13;;;;;;;7.64;100.00;102253.59;5269178;28;20051;-70
2022/05/28 01:35:34;;;;;;;13.70;4.35;;;;;;;7.57;100.00;102254.13;5265563;28;20562;-71
2022/05/28 01:38:07;;;;;;;16.02;5.53;;;;;;;7.49;100.00;102252.88;5279092;28;20035;-71
2022/05/28 01:40:40;;;;;;;16.45;4.88;;;;;;;7.43;100.00;102248.00;5265600;28;20044;-71
2022/05/28 01:43:14;;;;;;;24.05;6.47;;;;;;;7.39;100.00;102246.50;5267449;28;20032;-71
2022/05/28 01:45:47;;;;;;;15.52;4.50;;;;;;;7.40;100.00;102244.69;5269528;28;20034;-71
2022/05/28 01:48:20;;;;;;;17.02;5.50;;;;;;;7.41;100.00;102241.91;5277489;28;20024;-70
2022/05/28 01:50:53;;;;;;;17.27;5.15;;;;;;;7.45;100.00;102239.88;5271505;28;20477;-70
2022/05/28 01:56:21;;;;;;;14.63;5.38;;;;;;;7.40;100.00;102244.69;5278407;28;20084;-70
2022/05/28 01:58:52;;;;;;;14.77;4.55;;;;;;;7.35;100.00;102247.69;5287909;28;20020;-70
2022/05/28 02:01:23;;;;;;;11.00;4.63;;;;;;;7.32;100.00;102242.56;5269519;28;20019;-70
2022/05/28 02:03:58;;;;;;;20.65;5.38;;;;;;;7.30;100.00;102239.16;5272578;28;20023;-70
2022/05/28 02:06:28;;;;;;;13.77;5.20;;;;;;;7.28;100.00;102246.44;5288273;27;20026;-70
2022/05/28 02:09:00;;;;;;;17.65;4.90;;;;;;;7.26;100.00;102240.34;5273620;27;20051;-70
2022/05/28 02:11:54;;;;;;;20.60;5.55;;;;;;;7.29;100.00;102241.97;5269251;28;20024;-71
2022/05/28 02:14:38;;;;;;;13.45;4.78;;;;;;;7.28;100.00;102243.78;5269097;28;20027;-70
2022/05/28 02:17:13;;;;;;;15.95;4.45;;;;;;;7.20;100.00;102235.47;5274647;28;20016;-70
2022/05/28 02:19:58;;;;;;;15.75;5.10;;;;;;;7.22;100.00;102241.53;5289968;28;20020;-70
2022/05/28 02:22:49;;;;;;;14.50;4.93;;;;;;;7.20;100.00;102240.78;5280710;27;20055;-70
2022/05/28 02:25:26;;;;;;;20.83;4.57;;;;;;;7.15;100.00;102240.28;5275484;28;20115;-70
2022/05/28 02:27:58;;;;;;;18.88;4.88;;;;;;;7.21;100.00;102234.50;5275015;28;20040;-70
2022/05/28 02:30:30;;;;;;;14.43;4.22;;;;;;;7.20;100.00;102233.63;5268934;28;20062;-70
2022/05/28 02:33:04;;;;;;;18.23;4.90;;;;;;;7.25;100.00;102242.16;5268972;28;20502;-71
2022/05/28 02:35:35;;;;;;;20.73;5.05;;;;;;;7.25;100.00;102234.16;5279735;28;20032;-71
2022/05/28 02:38:06;;;;;;;16.70;5.05;;;;;;;7.31;100.00;102237.34;5289752;28;20027;-71
2022/05/28 02:40:36;;;;;;;17.38;4.63;;;;;;;7.29;100.00;102233.94;5289500;28;20024;-72
2022/05/28 02:43:07;;;;;;;23.75;5.38;;;;;;;7.21;100.00;102237.16;5289973;28;20022;-71
2022/05/28 02:45:39;;;;;;;15.68;5.20;;;;;;;7.15;100.00;102233.13;5275993;28;20032;-71
2022/05/28 02:48:10;;;;;;;16.08;5.45;;;;;;;7.17;100.00;102236.50;5282875;27;20020;-71
2022/05/28 02:50:40;;;;;;;23.67;4.93;;;;;;;7.21;100.00;102232.66;5273489;28;20500;-71
2022/05/28 02:53:13;;;;;;;18.05;5.85;;;;;;;7.22;100.00;102229.03;5289561;28;20072;-71
2022/05/28 02:55:44;;;;;;;17.52;4.47;;;;;;;7.21;100.00;102227.34;5272476;28;20019;-70
2022/05/28 02:58:15;;;;;;;17.08;4.88;;;;;;;7.19;100.00;102225.75;5279835;28;20050;-70
2022/05/28 03:00:45;;;;;;;13.65;5.32;;;;;;;7.16;100.00;102229.47;5270667;27;20027;-69
2022/05/28 03:03:19;;;;;;;12.82;4.80;;;;;;;7.16;100.00;102228.63;5280490;28;20039;-70
2022/05/28 03:05:51;;;;;;;15.02;5.43;;;;;;;7.15;100.00;102227.78;5267765;28;20024;-70
2022/05/28 03:08:21;;;;;;;20.58;5.75;;;;;;;7.14;100.00;102230.56;5288402;28;20076;-70
2022/05/28 03:10:52;;;;;;;16.35;4.75;;;;;;;7.11;100.00;102222.78;5281615;28;20019;-70
2022/05/28 03:13:22;;;;;;;20.60;5.47;;;;;;;7.04;100.00;102232.19;5270326;28;20032;-70
2022/05/28 03:15:53;;;;;;;17.83;5.55;;;;;;;7.00;100.00;102231.56;5278771;28;20063;-70
2022/05/28 03:18:23;;;;;;;17.45;5.25;;;;;;;6.98;100.00;102229.00;5284764;28;20025;-70
2022/05/28 03:20:54;;;;;;;19.83;5.40;;;;;;;6.96;100.00;102232.72;5288908;28;20028;-70
2022/05/28 03:23:24;;;;;;;16.92;5.57;;;;;;;6.90;100.00;102230.50;5284649;28;20058;-69
2022/05/28 03:25:55;;;;;;;14.07;5.38;;;;;;;6.85;100.00;102230.81;5279298;28;20012;-70
2022/05/28 03:28:25;;;;;;;17.45;5.38;;;;;;;6.82;100.00;102233.69;5274561;27;20117;-70
2022/05/28 03:30:56;;;;;;;16.23;5.72;;;;;;;6.82;100.00;102230.16;5275038;28;20038;-70
2022/05/28 03:33:26;;;;;;;15.35;5.53;;;;;;;6.82;100.00;102232.84;5281716;28;20052;-70
2022/05/28 03:35:57;;;;;;;13.25;4.93;;;;;;;6.83;100.00;102237.22;5281116;28;20069;-71
2022/05/28 03:38:28;;;;;;;17.95;5.18;;;;;;;6.80;100.00;102232.97;5269996;28;20022;-70
2022/05/28 03:40:59;;;;;;;31.27;6.25;;;;;;;6.81;100.00;102232.00;5267021;28;20020;-70
2022/05/28 03:43:29;;;;;;;11.88;5.18;;;;;;;6.77;100.00;102230.50;5267753;28;20089;-70
2022/05/28 03:46:01;;;;;;;12.82;4.97;;;;;;;6.78;100.00;102236.69;5280883;28;20023;-70
2022/05/28 03:48:33;;;;;;;12.07;5.05;;;;;;;6.83;100.00;102235.41;5277340;28;20107;-71
2022/05/28 03:51:03;;;;;;;19.38;5.78;;;;;;;6.86;100.00;102235.19;5272351;28;20510;-71
2022/05/28 03:53:34;;;;;;;16.20;5.65;;;;;;;6.85;100.00;102225.47;5275552;28;20020;-70
2022/05/28 03:56:04;;;;;;;19.95;6.10;;;;;;;6.87;100.00;102233.38;5287369;28;20454;-71
2022/05/28 03:58:35;;;;;;;18.27;6.50;;;;;;;6.89;100.00;102234.97;5274815;28;20481;-71
2022/05/28 04:01:05;;;;;;;23.77;5.85;;;;;;;6.90;100.00;102236.69;5288780;28;20032;-72
2022/05/28 04:03:36;;;;;;;29.10;8.05;;;;;;;6.91;100.00;102234.88;5286450;28;20077;-72
2022/05/28 04:06:08;;;;;;;22.38;6.43;;;;;;;6.92;100.00;102240.06;5267804;28;20020;-71
2022/05/28 04:08:40;;;;;;;21.48;6.57;;;;;;;6.96;100.00;102235.38;5274629;28;20055;-71
2022/05/28 04:11:10;;;;;;;22.15;6.68;;;;;;;7.00;100.00;102234.22;5288118;28;20030;-70
2022/05/28 04:13:40;;;;;;;20.00;6.78;;;;;;;7.04;100.00;102235.72;5274600;28;20035;-70
2022/05/28 04:16:13;;;;;;;24.52;7.05;;;;;;;7.08;100.00;102244.31;5283479;28;20016;-70
2022/05/28 04:18:43;;;;;;;23.42;7.10;;;;;;;7.12;100.00;102236.00;5280716;28;20380;-70
2022/05/28 04:21:14;;;;;;;26.25;6.60;;;;;;;7.21;100.00;102237.16;5280186;28;20022;-71
2022/05/28 04:23:44;;;;;;;24.92;7.65;;;;;;;7.26;100.00;102245.69;5280684;28;20344;-73
2022/05/28 04:26:16;;;;;;;25.90;7.35;;;;;;;7.32;100.00;102236.38;5280285;28;20035;-71
2022/05/28 04:28:46;;;;;;;28.90;7.38;;;;;;;7.40;100.00;102237.53;5274286;28;20080;-70
2022/05/28 04:31:16;;;;;;;17.27;6.10;;;;;;;7.48;100.00;102236.97;5286777;28;20496;-70
2022/05/28 04:33:47;;;;;;;16.63;6.63;;;;;;;7.55;100.00;102246.25;5287020;27;20053;-70
2022/05/28 04:36:18;;;;;;;22.50;5.97;;;;;;;7.59;100.00;102246.88;5272869;28;20107;-69
2022/05/28 04:38:48;;;;;;;31.45;7.70;;;;;;;7.61;100.00;102251.13;5276241;27;20020;-70
2022/05/28 04:41:19;;;;;;;20.63;6.78;;;;;;;7.68;100.00;102249.72;5269485;28;20062;-70
2022/05/28 04:43:49;;;;;;;21.77;6.38;;;;;;;7.75;100.00;102250.97;5274980;28;20110;-70
2022/05/28 04:46:20;;;;;;;23.98;7.32;;;;;;;7.83;100.00;102244.19;5278965;28;20153;-70
2022/05/28 04:48:50;;;;;;;19.92;7.20;;;;;;;7.90;100.00;102242.78;5271908;28;20066;-70
2022/05/28 04:51:21;;;;;;;25.92;6.97;;;;;;;7.99;100.00;102242.09;5265424;28;20027;-70
2022/05/28 04:53:51;;;;;;;18.85;6.22;;;;;;;8.10;100.00;102244.81;5265124;28;20162;-71
2022/05/28 04:56:22;;;;;;;25.52;6.57;;;;;;;8.21;100.00;102238.63;5286493;28;20504;-71
2022/05/28 04:58:53;;;;;;;25.58;6.47;;;;;;;8.34;100.00;102250.13;5286335;28;20111;-70
2022/05/28 05:01:24;;;;;;;29.88;7.82;;;;;;;8.46;100.00;102246.50;5286451;28;20028;-70
2022/05/28 05:03:54;;;;;;;20.67;6.50;;;;;;;8.56;100.00;102246.66;5282640;28;20024;-70
2022/05/28 05:06:25;;;;;;;22.25;6.45;;;;;;;8.69;100.00;102249.25;5279717;28;20043;-70
2022/05/28 05:08:55;;;;;;;28.23;7.78;;;;;;;8.81;100.00;102249.13;5289259;27;20636;-70
2022/05/28 05:11:26;;;;;;;30.45;7.15;;;;;;;8.91;100.00;102251.91;5274656;28;20027;-70
2022/05/28 05:13:56;;;;;;;25.25;7.40;;;;;;;9.05;100.00;102254.34;5284596;28;20858;-70
2022/05/28 05:16:27;;;;;;;19.63;5.78;;;;;;;9.20;100.00;102260.31;5279214;28;20085;-70
2022/05/28 05:18:57;;;;;;;19.13;6.15;;;;;;;9.37;100.00;102252.75;5284716;28;20022;-70
2022/05/28 05:21:28;;;;;;;26.75;6.53;;;;;;;9.51;100.00;102252.47;5272378;28;20463;-70
2022/05/28 05:23:58;;;;;;;20.60;6.05;;;;;;;9.66;100.00;102261.09;5286246;28;20027;-70
2022/05/28 05:26:29;;;;;;;36.38;8.02;;;;;;;9.80;100.00;102258.13;5269040;28;20031;-70
2022/05/28 05:28:59;;;;;;;24.88;7.05;;;;;;;10.00;100.00;102257.31;5234918;28;1133214;-70
2022/05/28 05:31:30;;;;;;;24.65;5.78;;;;;;;10.19;100.00;102256.63;5272850;28;20020;-70
2022/05/28 05:34:00;;;;;;;24.20;5.93;;;;;;;10.39;100.00;102257.63;5287135;28;20024;-70
2022/05/28 05:36:31;;;;;;;14.48;5.32;;;;;;;10.62;100.00;102253.84;5273050;28;20058;-70
2022/05/28 05:39:02;;;;;;;18.80;6.32;;;;;;;10.77;100.00;102258.88;5275184;28;20474;-70
2022/05/28 05:41:32;;;;;;;22.65;5.60;;;;;;;10.92;100.00;102246.78;5270732;28;20035;-70
2022/05/28 05:44:03;;;;;;;17.55;6.18;;;;;;;11.05;100.00;102252.78;5273952;28;20055;-71
2022/05/28 05:46:34;;;;;;;20.00;5.57;;;;;;;11.37;100.00;102257.13;5279662;28;20055;-71
2022/05/28 05:49:04;;;;;;;31.27;6.20;;;;;;;11.51;100.00;102255.91;5273989;28;20477;-70
2022/05/28 05:51:40;;;;;;;19.85;4.82;;;;;;;11.80;100.00;102264.88;5277402;28;20107;-70
2022/05/28 05:54:11;;;;;;;20.83;5.82;;;;;;;12.02;100.00;102260.25;5278568;28;20016;-70
2022/05/28 05:56:42;;;;;;;19.95;5.43;;;;;;;12.75;100.00;102258.75;5265605;28;20064;-70
2022/05/28 05:59:12;;;;;;;24.45;4.75;;;;;;;13.85;100.00;102257.91;5271493;28;20070;-69
2022/05/28 06:01:43;;;;;;;17.98;4.90;;;;;;;15.14;100.00;102264.44;5273272;28;20106;-70
2022/05/28 06:04:14;;;;;;;18.08;4.03;;;;;;;16.20;100.00;102246.63;5269326;28;21027;-70
2022/05/28 06:06:44;;;;;;;17.13;3.70;;;;;;;16.96;100.00;102255.34;5277986;28;20106;-70
2022/05/28 06:09:15;;;;;;;16.73;4.28;;;;;;;17.21;100.00;102254.25;5283738;28;20026;-70
2022/05/28 06:11:45;;;;;;;15.82;3.72;;;;;;;18.35;100.00;102263.56;5282454;28;20027;-70
2022/05/28 06:14:16;;;;;;;15.00;3.33;;;;;;;18.40;100.00;102261.13;5283240;28;20305;-70
2022/05/28 06:16:46;;;;;;;11.95;3.60;;;;;;;18.43;100.00;102266.22;5270086;28;20288;-70
2022/05/28 06:19:16;;;;;;;10.55;3.25;;;;;;;18.76;100.00;102258.59;5272273;28;20267;-70
2022/05/28 06:21:47;;;;;;;10.38;3.03;;;;;;;19.79;100.00;102273.16;5280762;28;20024;-70
2022/05/28 06:24:17;;;;;;;12.73;2.97;;;;;;;19.46;100.00;102268.13;5283007;28;20036;-70
2022/05/28 06:26:48;;;;;;;12.68;3.30;;;;;;;19.33;100.00;102266.09;5283582;28;20389;-70
2022/05/28 06:29:18;;;;;;;13.43;3.25;;;;;;;19.06;100.00;102266.78;5285191;28;20033;-70
2022/05/28 06:31:49;;;;;;;15.07;3.50;;;;;;;19.42;100.00;102261.38;5279902;28;20493;-70
2022/05/28 06:34:19;;;;;;;12.35;2.92;;;;;;;19.68;100.00;102269.06;5280573;28;20051;-70
2022/05/28 06:36:50;;;;;;;12.02;2.53;;;;;;;19.79;100.00;102268.56;5278776;28;20538;-70
2022/05/28 06:39:22;;;;;;;12.68;2.28;;;;;;;19.81;100.00;102258.31;5271920;28;20058;-70
2022/05/28 06:41:53;;;;;;;9.00;2.60;;;;;;;19.17;100.00;102260.84;5276890;28;20113;-70
2022/05/28 06:44:23;;;;;;;8.90;2.30;;;;;;;18.53;100.00;102268.69;5279448;28;20024;-70
2022/05/28 06:46:53;;;;;;;10.10;1.92;;;;;;;18.55;100.00;102262.00;5277645;28;20030;-70
2022/05/28 06:49:24;;;;;;;7.85;1.67;;;;;;;19.04;100.00;102268.84;5289733;27;20024;-70
2022/05/28 06:51:54;;;;;;;10.65;1.80;;;;;;;19.32;100.00;102267.13;5294693;27;20056;-71
2022/05/28 06:54:25;;;;;;;11.32;1.85;;;;;;;19.75;100.00;102267.25;5286017;28;20047;-70
2022/05/28 06:56:55;;;;;;;9.38;1.25;;;;;;;20.35;87.42;102274.13;5286849;28;20039;-70
2022/05/28 06:59:26;;;;;;;7.97;1.48;;;;;;;19.97;91.00;102262.66;5287272;28;20476;-70
2022/05/28 07:01:56;;;;;;;8.80;1.75;;;;;;;19.64;100.00;102275.94;5286490;28;20211;-70
2022/05/28 07:04:27;;;;;;;9.00;1.70;;;;;;;19.22;100.00;102271.16;5285942;27;20034;-71
2022/05/28 07:06:58;;;;;;;5.90;1.83;;;;;;;18.70;94.11;102264.78;5286423;28;20366;-70
2022/05/28 07:09:30;;;;;;;8.73;1.55;;;;;;;17.48;100.00;102273.81;5287144;28;20457;-70
2022/05/28 07:12:00;;;;;;;5.90;1.33;;;;;;;17.16;100.00;102270.19;5286736;28;20035;-70
2022/05/28 07:14:31;;;;;;;9.00;1.40;;;;;;;17.49;100.00;102265.47;5286331;28;20020;-70
2022/05/28 07:17:01;;;;;;;10.48;1.60;;;;;;;16.83;100.00;102264.88;5275473;28;20024;-70
2022/05/28 07:19:32;;;;;;;11.80;1.58;;;;;;;16.34;100.00;102268.66;5277230;28;20024;-70
2022/05/28 07:22:03;;;;;;;6.32;1.42;;;;;;;16.88;100.00;102269.78;5285202;28;20016;-70
2022/05/28 07:24:34;;;;;;;8.88;1.85;;;;;;;16.92;100.00;102265.72;5272804;28;20020;-70
2022/05/28 07:27:04;;;;;;;5.10;1.35;;;;;;;16.70;100.00;102272.66;5279443;28;20486;-70
2022/05/28 07:29:35;;;;;;;10.55;1.70;;;;;;;16.70;100.00;102271.81;5278633;28;20080;-70
2022/05/28 07:32:06;;;;;;;8.52;1.52;;;;;;;16.69;100.00;102270.13;5285993;28;20020;-70
2022/05/28 07:34:37;;;;;;;7.40;1.70;;;;;;;16.38;100.00;102270.00;5283848;28;20472;-70
2022/05/28 07:37:07;;;;;;;7.65;1.48;;;;;;;16.00;100.00;102275.88;5275293;28;20080;-70
2022/05/28 07:39:38;;;;;;;5.13;1.38;;;;;;;15.63;100.00;102279.03;5274379;28;20047;-70
2022/05/28 07:42:09;;;;;;;5.20;1.10;;;;;;;15.37;100.00;102278.25;5285806;28;20020;-70
2022/05/28 07:44:39;;;;;;;9.27;1.38;;;;;;;15.29;100.00;102270.94;5284980;28;20104;-70
2022/05/28 07:47:10;;;;;;;5.43;1.27;;;;;;;15.15;100.00;102274.25;5273826;28;20012;-70
2022/05/28 07:49:40;;;;;;;6.32;1.23;;;;;;;15.42;100.00;102278.59;5278502;28;20026;-70
2022/05/28 07:52:11;;;;;;;5.88;1.00;;;;;;;16.50;100.00;102277.59;5286096;28;20020;-70
2022/05/28 07:54:41;;;;;;;8.80;1.50;;;;;;;17.71;100.00;102274.69;5285412;28;20130;-70
2022/05/28 07:57:12;;;;;;;4.90;1.08;;;;;;;18.83;97.84;102275.88;5285364;28;20110;-70
2022/05/28 07:59:42;;;;;;;5.35;1.20;;;;;;;19.25;96.98;102278.97;5274923;28;20492;-71
2022/05/28 08:02:13;;;;;;;5.30;1.08;;;;;;;19.25;87.78;102276.25;5281816;28;20028;-70
2022/05/28 08:04:43;;;;;;;8.10;1.50;;;;;;;19.59;91.19;102281.06;5285310;28;20076;-70
2022/05/28 08:07:14;;;;;;;4.65;1.20;;;;;;;19.49;87.88;102277.81;5285475;28;20536;-70
2022/05/28 08:09:44;;;;;;;1.60;0.60;;;;;;;18.83;92.98;102267.72;5285812;28;20469;-69
2022/05/28 08:12:15;;;;;;;7.45;1.77;;;;;;;19.14;91.85;102264.81;5285625;28;20451;-69
2022/05/28 08:14:45;;;;;;;7.55;1.38;;;;;;;19.88;87.23;102266.53;5271814;28;20115;-69
2022/05/28 08:17:16;;;;;;;9.45;1.63;;;;;;;20.32;87.21;102258.16;5271620;28;20034;-69
2022/05/28 08:19:46;;;;;;;9.02;1.60;;;;;;;20.94;83.58;102262.88;5284957;28;20110;-70
2022/05/28 08:25:06;;;;;;;3.55;1.00;;;;;;;21.67;76.05;102255.00;5282177;28;20122;-69
2022/05/28 08:27:37;;;;;;;5.80;1.10;;;;;;;21.80;83.44;102253.38;5285492;28;20102;-69
2022/05/28 08:30:08;;;;;;;4.35;1.08;;;;;;;22.09;78.51;102249.41;5285026;28;20026;-70
2022/05/28 08:32:38;;;;;;;6.47;1.27;;;;;;;22.87;73.12;102257.81;5284725;28;20506;-70
2022/05/28 08:35:09;;;;;;;10.38;1.33;;;;;;;23.57;70.67;102253.38;5263514;28;20020;-71
2022/05/28 08:37:39;;;;;;;6.53;1.25;;;;;;;23.46;70.72;102248.59;5279229;28;20434;-70
2022/05/28 08:40:12;;;;;;;7.65;1.40;;;;;;;23.99;64.58;102262.84;5265668;27;20412;-70
2022/05/28 08:42:43;;;;;;;2.25;0.82;;;;;;;23.78;61.33;102254.97;5266895;28;20038;-70
2022/05/28 08:45:15;;;;;;;7.72;1.40;;;;;;;23.70;60.34;102253.34;5273521;27;20461;-70
2022/05/28 08:47:47;;;;;;;3.83;0.98;;;;;;;23.55;59.15;102254.66;5282203;28;20519;-70
2022/05/28 08:50:18;;;;;;;7.00;1.52;;;;;;;22.55;59.95;102251.34;5294879;27;20035;-70
2022/05/28 08:53:01;;;;;;;6.47;1.27;;;;;;;20.97;62.03;102247.13;5272209;27;20019;-70
2022/05/28 08:55:40;;;;;;;7.25;1.40;;;;;;;19.42;72.17;102259.50;5284326;28;20026;-70
2022/05/28 08:58:15;;;;;;;12.15;1.20;;;;;;;18.33;80.63;102252.88;5285027;27;20023;-70
2022/05/28 09:01:15;;;;;;;4.32;1.33;;;;;;;17.94;80.33;102260.31;5280292;28;20088;-69
2022/05/28 09:03:54;;;;;;;7.10;1.10;;;;;;;18.29;80.01;102248.84;5279422;28;20227;-69
2022/05/28 09:06:35;;;;;;;3.00;0.70;;;;;;;18.11;84.08;102257.28;5284272;28;20143;-70
2022/05/28 09:09:09;;;;;;;6.20;0.98;;;;;;;17.66;85.23;102252.66;5270859;28;20111;-69
2022/05/28 09:11:59;;;;;;;6.00;0.93;;;;;;;16.89;90.18;102257.91;5284348;28;20115;-70
2022/05/28 09:14:31;;;;;;;6.00;0.77;;;;;;;16.49;100.00;102247.97;5284035;28;20024;-70
2022/05/28 09:17:20;;;;;;;8.52;1.60;;;;;;;17.19;100.00;102247.31;5273563;28;20104;-69
2022/05/28 09:19:53;;;;;;;8.23;1.30;;;;;;;18.53;97.47;102250.50;5279046;28;20443;-70
2022/05/28 09:22:25;;;;;;;7.03;1.80;;;;;;;19.50;83.15;102252.28;5283748;28;20066;-69
2022/05/28 09:24:56;;;;;;;4.95;0.95;;;;;;;20.10;77.00;102253.78;5280527;28;20024;-70
2022/05/28 09:27:40;;;;;;;6.90;1.30;;;;;;;20.61;69.63;102245.44;5263288;28;20031;-70
2022/05/28 09:30:48;;;;;;;5.32;1.02;;;;;;;20.88;68.47;102247.31;5283259;28;20093;-69
2022/05/28 09:33:28;;;;;;;4.20;0.73;;;;;;;21.03;68.08;102244.41;5278840;28;20704;-70
2022/05/28 09:36:17;;;;;;;3.85;0.70;;;;;;;21.71;60.66;102241.78;5277424;28;20024;-70
2022/05/28 09:39:25;;;;;;;2.85;1.42;;;;;;;21.20;58.85;102245.78;5276798;28;20047;-70
2022/05/28 09:42:14;;;;;;;4.10;0.80;;;;;;;19.81;63.30;102250.13;5273875;28;20034;-70
2022/05/28 09:44:55;;;;;;;5.60;0.93;;;;;;;18.54;68.29;102241.31;5284099;28;20139;-70
2022/05/28 09:47:25;;;;;;;4.38;1.13;;;;;;;17.72;72.40;102248.38;5283531;27;20028;-69
2022/05/28 09:49:57;;;;;;;6.20;1.30;;;;;;;16.89;78.97;102251.66;5282588;28;20012;-69
2022/05/28 09:52:34;;;;;;;4.68;1.05;;;;;;;16.41;84.35;102243.41;5281080;28;20023;-69
2022/05/28 09:55:18;;;;;;;2.97;0.90;;;;;;;16.68;90.38;102247.63;5274465;28;20026;-69
2022/05/28 09:58:16;;;;;;;5.22;1.00;;;;;;;17.85;87.14;102246.81;5283780;28;20032;-70
2022/05/28 10:00:48;;;;;;;9.13;1.30;;;;;;;18.93;84.47;102247.56;5270390;28;20068;-69
2022/05/28 10:06:19;;;;;;;3.92;0.65;;;;;;;19.99;67.00;102244.25;5276389;28;20023;-70
2022/05/28 10:08:49;;;;;;;4.60;0.75;;;;;;;20.37;66.73;102224.88;5288169;28;20471;-70
2022/05/28 10:11:22;;;;;;;4.28;1.02;;;;;;;20.50;63.53;102233.19;5288293;28;20028;-70
2022/05/28 10:13:56;;;;;;;2.90;0.95;;;;;;;19.87;65.06;102224.84;5287713;28;20362;-70
2022/05/28 10:16:38;;;;;;;5.97;0.98;;;;;;;18.84;68.56;102231.34;5280883;28;20024;-69
2022/05/28 10:19:29;;;;;;;10.48;1.40;;;;;;;18.66;70.22;102233.53;5275934;28;20011;-69
2022/05/28 10:22:03;;;;;;;6.63;1.08;;;;;;;18.85;74.91;102224.84;5287558;28;20035;-70
2022/05/28 10:24:49;;;;;;;7.18;1.25;;;;;;;19.61;76.89;102224.59;5287428;28;20047;-70
2022/05/28 10:27:50;;;;;;;5.47;1.52;;;;;;;20.27;64.89;102225.22;5287564;27;20027;-70
2022/05/28 10:30:25;;;;;;;6.07;1.20;;;;;;;20.36;69.72;102218.59;5287455;28;20024;-70
2022/05/28 10:32:57;;;;;;;7.55;1.23;;;;;;;21.20;70.82;102223.13;5287919;27;20031;-71
2022/05/28 10:35:30;;;;;;;3.83;0.80;;;;;;;21.35;62.35;102229.28;5286451;28;20031;-70
2022/05/28 10:38:17;;;;;;;2.65;0.73;;;;;;;20.23;56.78;102220.34;5286721;28;20023;-70
2022/05/28 10:41:15;;;;;;;2.83;0.90;;;;;;;19.03;61.63;102226.38;5279885;28;20418;-69
2022/05/28 10:43:46;;;;;;;7.93;1.20;;;;;;;18.08;65.99;102224.25;5287003;28;20126;-69
2022/05/28 10:46:27;;;;;;;5.97;0.98;;;;;;;17.72;68.71;102226.66;5286939;28;20016;-69
2022/05/28 10:49:25;;;;;;;7.88;1.35;;;;;;;17.25;71.81;102223.03;5283920;27;20059;-69
2022/05/28 10:52:17;;;;;;;5.35;1.15;;;;;;;17.52;82.37;102220.84;5277339;28;20504;-69
2022/05/28 10:55:21;;;;;;;5.85;1.17;;;;;;;17.97;71.93;102220.09;5277957;28;20059;-69
2022/05/28 10:58:26;;;;;;;4.90;1.20;;;;;;;17.77;72.50;102218.84;5274068;28;20461;-69
2022/05/28 11:01:01;;;;;;;11.88;1.25;;;;;;;17.47;75.75;102206.97;5287481;28;20327;-69
2022/05/28 11:03:59;;;;;;;7.07;1.25;;;;;;;17.22;74.67;102218.00;5286780;28;20023;-69
2022/05/28 11:07:00;;;;;;;3.30;1.10;;;;;;;17.78;69.32;102217.84;5285570;28;20015;-69
2022/05/28 11:09:59;;;;;;;5.97;1.10;;;;;;;18.78;70.82;102213.06;5276445;28;20028;-69
2022/05/28 11:13:08;;;;;;;8.20;1.08;;;;;;;19.50;65.01;102219.63;5274908;28;20320;-69
2022/05/28 11:15:44;;;;;;;6.07;1.13;;;;;;;19.22;64.37;102214.88;5286980;28;20023;-69
2022/05/28 11:18:43;;;;;;;4.22;0.90;;;;;;;18.76;65.95;102214.25;5264536;28;20031;-70
2022/05/28 11:21:14;;;;;;;3.97;1.35;;;;;;;18.40;71.40;102214.09;5279326;28;20364;-70
2022/05/28 11:24:13;;;;;;;3.58;1.10;;;;;;;18.48;73.10;102212.16;5273483;28;20062;-69
2022/05/28 11:26:56;;;;;;;6.93;1.60;;;;;;;18.74;75.82;102206.31;5286926;28;20027;-69
2022/05/28 11:29:35;;;;;;;5.93;1.30;;;;;;;19.34;73.15;102213.38;5286182;28;20436;-70
2022/05/28 11:32:27;;;;;;;4.50;0.93;;;;;;;19.41;63.61;102206.13;5286685;28;20565;-70
2022/05/28 11:35:07;;;;;;;3.47;1.00;;;;;;;18.53;64.24;102198.03;5287626;28;20043;-69
2022/05/28 11:37:44;;;;;;;6.30;1.17;;;;;;;18.25;65.86;102198.63;5288172;28;20026;-69
2022/05/28 11:40:22;;;;;;;6.50;1.00;;;;;;;18.11;66.70;102191.28;5268554;27;20410;-69
2022/05/28 11:43:07;;;;;;;5.15;0.90;;;;;;;18.36;62.25;102194.59;5281417;28;20099;-69
2022/05/28 11:46:14;;;;;;;3.63;1.05;;;;;;;18.24;62.42;102187.94;5281955;28;20059;-69
2022/05/28 11:52:03;;;;;;;2.88;0.63;;;;;;;19.01;65.13;102188.47;5277782;28;20024;-69
2022/05/28 11:54:41;;;;;;;7.32;1.35;;;;;;;18.65;63.21;102180.22;5274416;28;20027;-69
2022/05/28 11:57:35;;;;;;;4.50;0.88;;;;;;;18.63;65.64;102183.13;5274716;28;20107;-70
2022/05/28 12:00:07;;;;;;;9.35;1.15;;;;;;;18.76;65.53;102185.19;5287274;28;20019;-69
2022/05/28 12:02:45;;;;;;;5.28;1.10;;;;;;;18.32;62.05;102180.56;5268089;28;20024;-69
2022/05/28 12:05:18;;;;;;;6.80;1.38;;;;;;;18.25;64.00;102171.47;5268409;28;20016;-69
2022/05/28 12:08:05;;;;;;;8.30;0.90;;;;;;;18.59;66.07;102175.53;5278897;28;20024;-69